createdAt,value
2019-03-24T00:00:05.335Z,8.02
2019-03-24T00:01:05.350Z,8.02
2019-03-24T00:02:05.362Z,8.04
2019-03-24T00:03:05.377Z,8.00
2019-03-24T00:04:05.386Z,8.05
2019-03-24T00:05:05.405Z,8.01
2019-03-24T00:06:05.410Z,7.97
2019-03-24T00:07:05.434Z,7.89
2019-03-24T00:08:05.433Z,7.97
2019-03-24T00:09:05.443Z,7.89
2019-03-24T00:10:05.459Z,7.93
2019-03-24T00:11:05.472Z,7.95
2019-03-24T00:12:05.491Z,7.95
2019-03-24T00:13:05.504Z,7.95
2019-03-24T00:14:05.513Z,7.90
2019-03-24T00:15:05.533Z,7.98
2019-03-24T00:16:05.545Z,7.92
2019-03-24T00:17:05.579Z,7.98
2019-03-24T00:18:05.561Z,7.90
2019-03-24T00:19:05.570Z,7.95
2019-03-24T00:20:05.581Z,7.90
2019-03-24T00:21:05.592Z,7.87
2019-03-24T00:22:05.605Z,7.82
2019-03-24T00:23:05.631Z,7.86
2019-03-24T00:24:05.626Z,7.83
2019-03-24T00:25:05.653Z,7.80
2019-03-24T00:26:05.657Z,7.77
2019-03-24T00:27:05.666Z,7.86
2019-03-24T00:28:05.676Z,7.83
2019-03-24T00:29:05.690Z,7.74
2019-03-24T00:30:05.713Z,7.75
2019-03-24T00:31:05.726Z,7.72
2019-03-24T00:32:05.727Z,7.83
2019-03-24T00:33:05.738Z,7.83
2019-03-24T00:34:05.748Z,7.83
2019-03-24T00:35:05.787Z,7.80
2019-03-24T00:36:05.780Z,7.69
2019-03-24T00:37:05.795Z,7.72
2019-03-24T00:38:05.795Z,7.71
2019-03-24T00:39:05.816Z,7.58
2019-03-24T00:40:05.822Z,7.63
2019-03-24T00:41:05.846Z,7.72
2019-03-24T00:42:05.846Z,7.71
2019-03-24T00:43:05.867Z,7.75
2019-03-24T00:44:05.886Z,7.80
2019-03-24T00:45:05.883Z,7.68
2019-03-24T00:46:05.901Z,7.69
2019-03-24T00:47:05.909Z,7.74
2019-03-24T00:48:05.926Z,7.75
2019-03-24T00:49:05.933Z,7.69
2019-03-24T00:50:05.961Z,7.72
2019-03-24T00:51:05.955Z,7.72
2019-03-24T00:52:05.973Z,7.72
2019-03-24T00:53:05.986Z,7.72
2019-03-24T00:54:06.006Z,7.69
2019-03-24T00:55:06.012Z,7.67
2019-03-24T00:56:06.014Z,7.74
2019-03-24T00:57:06.024Z,7.75
2019-03-24T00:58:06.041Z,7.74
2019-03-24T00:59:06.052Z,7.79
2019-03-24T01:00:06.070Z,7.83
2019-03-24T01:01:06.076Z,7.83
2019-03-24T01:02:06.096Z,7.87
2019-03-24T01:03:06.099Z,7.79
2019-03-24T01:04:06.124Z,7.82
2019-03-24T01:05:06.130Z,7.79
2019-03-24T01:06:06.147Z,7.77
2019-03-24T01:07:06.156Z,7.72
2019-03-24T01:08:06.176Z,7.72
2019-03-24T01:09:06.180Z,7.74
2019-03-24T01:10:06.189Z,7.69
2019-03-24T01:11:06.197Z,7.72
2019-03-24T01:12:06.206Z,7.75
2019-03-24T01:13:06.220Z,7.74
2019-03-24T01:14:06.230Z,7.60
2019-03-24T01:15:06.245Z,7.64
2019-03-24T01:16:06.256Z,7.49
2019-03-24T01:17:06.271Z,7.50
2019-03-24T01:18:06.284Z,7.55
2019-03-24T01:19:06.293Z,7.57
2019-03-24T01:20:06.321Z,7.55
2019-03-24T01:21:06.324Z,7.49
2019-03-24T01:22:06.328Z,7.64
2019-03-24T01:23:06.340Z,7.64
2019-03-24T01:24:06.354Z,7.68
2019-03-24T01:25:06.368Z,7.60
2019-03-24T01:26:06.378Z,7.60
2019-03-24T01:27:06.390Z,7.67
2019-03-24T01:28:06.399Z,7.63
2019-03-24T01:29:06.416Z,7.58
2019-03-24T01:30:06.430Z,7.61
2019-03-24T01:31:06.435Z,7.64
2019-03-24T01:32:06.452Z,7.63
2019-03-24T01:33:06.476Z,7.68
2019-03-24T01:34:06.472Z,7.60
2019-03-24T01:35:06.486Z,7.67
2019-03-24T01:36:06.512Z,7.55
2019-03-24T01:37:06.520Z,7.64
2019-03-24T01:38:06.518Z,7.52
2019-03-24T01:39:06.549Z,7.52
2019-03-24T01:40:06.546Z,7.50
2019-03-24T01:41:08.113Z,7.53
2019-03-24T01:42:06.575Z,7.45
2019-03-24T01:43:06.583Z,7.46
2019-03-24T01:44:06.597Z,7.53
2019-03-24T01:45:06.610Z,7.49
2019-03-24T01:46:06.615Z,7.42
2019-03-24T01:47:06.643Z,7.52
2019-03-24T01:48:06.657Z,7.45
2019-03-24T01:49:06.659Z,7.46
2019-03-24T01:50:06.665Z,7.43
2019-03-24T01:51:06.689Z,7.50
2019-03-24T01:52:06.698Z,7.46
2019-03-24T01:53:06.770Z,7.49
2019-03-24T01:54:06.712Z,7.53
2019-03-24T01:55:06.728Z,7.46
2019-03-24T01:56:06.739Z,7.46
2019-03-24T01:57:06.750Z,7.42
2019-03-24T01:58:06.762Z,7.46
2019-03-24T01:59:06.775Z,7.46
2019-03-24T02:00:06.789Z,7.45
2019-03-24T02:01:06.804Z,7.39
2019-03-24T02:02:06.829Z,7.28
2019-03-24T02:03:06.822Z,7.37
2019-03-24T02:04:06.843Z,7.28
2019-03-24T02:05:06.870Z,7.32
2019-03-24T02:06:06.854Z,7.34
2019-03-24T02:07:06.876Z,7.15
2019-03-24T02:08:06.882Z,7.24
2019-03-24T02:09:06.903Z,7.21
2019-03-24T02:11:06.930Z,7.12
2019-03-24T02:12:06.935Z,7.07
2019-03-24T02:13:06.943Z,7.10
2019-03-24T02:14:06.953Z,7.13
2019-03-24T02:15:06.961Z,7.15
2019-03-24T02:16:09.634Z,7.03
2019-03-24T02:17:06.990Z,6.92
2019-03-24T02:18:07.010Z,7.07
2019-03-24T02:19:07.041Z,7.07
2019-03-24T02:20:07.025Z,6.97
2019-03-24T02:21:07.035Z,6.94
2019-03-24T02:22:07.050Z,6.95
2019-03-24T02:23:07.057Z,7.05
2019-03-24T02:24:07.069Z,7.05
2019-03-24T02:25:07.104Z,7.03
2019-03-24T02:26:07.108Z,7.03
2019-03-24T02:27:07.109Z,7.07
2019-03-24T02:28:07.125Z,7.06
2019-03-24T02:29:07.132Z,7.02
2019-03-24T02:30:07.143Z,6.99
2019-03-24T02:31:07.151Z,6.94
2019-03-24T02:32:07.176Z,6.88
2019-03-24T02:33:07.188Z,6.85
2019-03-24T02:34:07.190Z,6.74
2019-03-24T02:35:07.202Z,6.71
2019-03-24T02:36:07.215Z,6.71
2019-03-24T02:37:07.242Z,6.70
2019-03-24T02:38:07.238Z,6.69
2019-03-24T02:39:07.247Z,6.80
2019-03-24T02:40:07.335Z,6.67
2019-03-24T02:41:07.281Z,6.69
2019-03-24T02:42:07.286Z,6.73
2019-03-24T02:43:07.299Z,6.70
2019-03-24T02:44:07.309Z,6.62
2019-03-24T02:45:07.320Z,6.66
2019-03-24T02:46:07.351Z,6.58
2019-03-24T02:47:07.349Z,6.66
2019-03-24T02:48:07.383Z,6.59
2019-03-24T02:49:07.368Z,6.62
2019-03-24T02:50:07.374Z,6.48
2019-03-24T02:51:07.393Z,6.48
2019-03-24T02:52:07.420Z,6.49
2019-03-24T02:53:07.410Z,6.49
2019-03-24T02:54:07.421Z,6.46
2019-03-24T02:55:07.459Z,6.44
2019-03-24T02:56:07.443Z,6.40
2019-03-24T02:57:07.462Z,6.38
2019-03-24T02:58:07.469Z,6.46
2019-03-24T02:59:07.484Z,6.41
2019-03-24T03:00:07.498Z,6.44
2019-03-24T03:01:07.516Z,6.46
2019-03-24T03:02:07.532Z,6.46
2019-03-24T03:03:07.607Z,6.49
2019-03-24T03:04:07.554Z,6.46
2019-03-24T03:05:07.556Z,6.48
2019-03-24T03:06:07.563Z,6.43
2019-03-24T03:07:07.581Z,6.49
2019-03-24T03:08:07.594Z,6.51
2019-03-24T03:09:07.595Z,6.41
2019-03-24T03:10:07.632Z,6.44
2019-03-24T03:11:07.622Z,6.44
2019-03-24T03:12:07.632Z,6.48
2019-03-24T03:13:07.645Z,6.38
2019-03-24T03:14:07.655Z,6.36
2019-03-24T03:15:07.664Z,6.41
2019-03-24T03:16:07.678Z,6.28
2019-03-24T03:17:07.696Z,6.40
2019-03-24T03:18:07.699Z,6.36
2019-03-24T03:19:10.345Z,6.30
2019-03-24T03:20:07.725Z,6.34
2019-03-24T03:21:07.737Z,6.31
2019-03-24T03:22:07.774Z,6.21
2019-03-24T03:23:07.762Z,6.22
2019-03-24T03:24:07.768Z,6.27
2019-03-24T03:25:07.787Z,6.22
2019-03-24T03:26:07.801Z,6.22
2019-03-24T03:27:07.802Z,6.15
2019-03-24T03:28:07.820Z,6.19
2019-03-24T03:29:07.838Z,6.15
2019-03-24T03:30:07.887Z,6.12
2019-03-24T03:31:07.855Z,6.11
2019-03-24T03:32:07.860Z,6.09
2019-03-24T03:33:07.879Z,6.04
2019-03-24T03:34:07.892Z,6.03
2019-03-24T03:35:07.945Z,6.12
2019-03-24T03:36:07.915Z,6.14
2019-03-24T03:37:07.917Z,6.14
2019-03-24T03:38:07.931Z,6.08
2019-03-24T03:39:07.954Z,6.14
2019-03-24T03:40:07.999Z,6.12
2019-03-24T03:41:08.000Z,6.12
2019-03-24T03:42:07.984Z,6.04
2019-03-24T03:43:08.002Z,6.12
2019-03-24T03:44:08.013Z,6.09
2019-03-24T03:45:08.011Z,6.12
2019-03-24T03:46:08.036Z,6.03
2019-03-24T03:47:08.046Z,6.04
2019-03-24T03:48:08.056Z,6.14
2019-03-24T03:49:08.071Z,6.03
2019-03-24T03:50:08.071Z,5.97
2019-03-24T03:51:08.091Z,6.11
2019-03-24T03:52:08.101Z,6.11
2019-03-24T03:53:08.109Z,5.99
2019-03-24T03:54:08.126Z,5.99
2019-03-24T03:55:08.125Z,5.93
2019-03-24T03:56:08.173Z,5.96
2019-03-24T03:57:08.151Z,5.94
2019-03-24T03:58:08.157Z,5.86
2019-03-24T03:59:08.198Z,5.94
2019-03-24T04:00:08.212Z,5.97
2019-03-24T04:01:08.216Z,5.96
2019-03-24T04:02:08.210Z,5.96
2019-03-24T04:03:08.225Z,5.85
2019-03-24T04:04:08.237Z,5.82
2019-03-24T04:05:08.240Z,5.78
2019-03-24T04:06:08.254Z,6.00
2019-03-24T04:07:08.277Z,5.99
2019-03-24T04:08:08.280Z,5.96
2019-03-24T04:09:08.292Z,5.86
2019-03-24T04:10:08.299Z,5.83
2019-03-24T04:11:08.309Z,5.83
2019-03-24T04:12:08.331Z,5.89
2019-03-24T04:13:08.338Z,5.85
2019-03-24T04:14:08.340Z,5.83
2019-03-24T04:15:08.355Z,5.81
2019-03-24T04:16:08.374Z,5.75
2019-03-24T04:17:08.399Z,5.79
2019-03-24T04:18:08.384Z,5.74
2019-03-24T04:19:08.399Z,5.76
2019-03-24T04:20:08.414Z,5.82
2019-03-24T04:21:08.434Z,5.74
2019-03-24T04:22:08.456Z,5.81
2019-03-24T04:23:08.451Z,5.74
2019-03-24T04:24:08.467Z,5.75
2019-03-24T04:25:08.476Z,5.76
2019-03-24T04:26:08.475Z,5.74
2019-03-24T04:27:08.487Z,5.65
2019-03-24T04:28:08.503Z,5.72
2019-03-24T04:29:08.511Z,5.68
2019-03-24T04:30:08.548Z,5.75
2019-03-24T04:31:08.533Z,5.74
2019-03-24T04:32:08.590Z,5.79
2019-03-24T04:33:08.557Z,5.68
2019-03-24T04:34:08.568Z,5.68
2019-03-24T04:35:08.584Z,5.65
2019-03-24T04:36:08.590Z,5.65
2019-03-24T04:37:08.617Z,5.72
2019-03-24T04:38:08.614Z,5.68
2019-03-24T04:39:08.624Z,5.71
2019-03-24T04:40:08.641Z,5.65
2019-03-24T04:41:08.645Z,5.58
2019-03-24T04:42:08.657Z,5.58
2019-03-24T04:43:08.668Z,5.56
2019-03-24T04:44:08.692Z,5.57
2019-03-24T04:45:08.691Z,5.58
2019-03-24T04:46:08.700Z,5.54
2019-03-24T04:47:16.334Z,5.51
2019-03-24T04:48:08.725Z,5.42
2019-03-24T04:49:08.740Z,5.45
2019-03-24T04:50:08.748Z,5.48
2019-03-24T04:51:08.763Z,5.49
2019-03-24T04:52:08.769Z,5.51
2019-03-24T04:53:08.780Z,5.56
2019-03-24T04:54:08.794Z,5.43
2019-03-24T04:55:08.811Z,5.56
2019-03-24T04:56:08.818Z,5.58
2019-03-24T04:57:08.834Z,5.53
2019-03-24T04:58:08.849Z,5.48
2019-03-24T04:59:08.870Z,5.46
2019-03-24T05:00:08.865Z,5.49
2019-03-24T05:01:08.912Z,5.43
2019-03-24T05:02:08.883Z,5.46
2019-03-24T05:03:08.899Z,5.46
2019-03-24T05:04:08.916Z,5.39
2019-03-24T05:05:08.917Z,5.40
2019-03-24T05:06:08.928Z,5.46
2019-03-24T05:07:08.943Z,5.51
2019-03-24T05:08:08.952Z,5.49
2019-03-24T05:09:08.957Z,5.49
2019-03-24T05:10:09.045Z,5.42
2019-03-24T05:11:08.986Z,5.39
2019-03-24T05:12:09.046Z,5.43
2019-03-24T05:13:09.037Z,5.33
2019-03-24T05:14:09.036Z,5.33
2019-03-24T05:15:09.026Z,5.36
2019-03-24T05:16:09.049Z,5.31
2019-03-24T05:17:09.052Z,5.30
2019-03-24T05:18:09.060Z,5.39
2019-03-24T05:19:09.073Z,5.36
2019-03-24T05:20:09.088Z,5.30
2019-03-24T05:21:09.093Z,5.33
2019-03-24T05:22:09.112Z,5.17
2019-03-24T05:23:09.129Z,5.24
2019-03-24T05:24:09.128Z,5.18
2019-03-24T05:25:09.135Z,5.17
2019-03-24T05:26:09.148Z,5.15
2019-03-24T05:27:09.170Z,5.13
2019-03-24T05:28:09.189Z,5.15
2019-03-24T05:29:09.198Z,5.10
2019-03-24T05:30:09.195Z,5.13
2019-03-24T05:31:09.204Z,5.10
2019-03-24T05:32:09.218Z,5.13
2019-03-24T05:33:09.240Z,5.13
2019-03-24T05:34:09.242Z,5.09
2019-03-24T05:35:09.259Z,5.06
2019-03-24T05:36:09.260Z,5.15
2019-03-24T05:37:09.278Z,5.07
2019-03-24T05:38:09.281Z,5.13
2019-03-24T05:39:09.292Z,5.13
2019-03-24T05:40:09.353Z,5.20
2019-03-24T05:41:09.343Z,5.15
2019-03-24T05:42:09.332Z,5.18
2019-03-24T05:43:09.337Z,5.17
2019-03-24T05:44:09.363Z,5.21
2019-03-24T05:45:09.359Z,5.15
2019-03-24T05:46:09.369Z,5.20
2019-03-24T05:47:09.390Z,5.15
2019-03-24T05:48:09.393Z,5.18
2019-03-24T05:49:09.402Z,5.12
2019-03-24T05:50:09.436Z,5.13
2019-03-24T05:51:09.434Z,5.20
2019-03-24T05:52:09.449Z,5.18
2019-03-24T05:53:09.453Z,5.15
2019-03-24T05:54:09.460Z,5.17
2019-03-24T05:55:09.482Z,5.17
2019-03-24T05:56:09.483Z,5.24
2019-03-24T05:57:09.493Z,5.20
2019-03-24T05:58:09.503Z,5.12
2019-03-24T05:59:09.523Z,5.13
2019-03-24T06:00:09.527Z,5.13
2019-03-24T06:01:09.543Z,5.15
2019-03-24T06:02:09.551Z,5.15
2019-03-24T06:03:09.635Z,5.15
2019-03-24T06:04:09.575Z,5.10
2019-03-24T06:05:09.583Z,5.06
2019-03-24T06:06:09.594Z,5.07
2019-03-24T06:07:09.642Z,5.15
2019-03-24T06:08:09.630Z,5.13
2019-03-24T06:09:09.631Z,5.12
2019-03-24T06:10:09.680Z,5.21
2019-03-24T06:11:09.651Z,5.20
2019-03-24T06:12:09.677Z,5.24
2019-03-24T06:13:09.697Z,5.24
2019-03-24T06:14:09.691Z,5.18
2019-03-24T06:15:09.706Z,5.33
2019-03-24T06:16:09.705Z,5.33
2019-03-24T06:17:09.725Z,5.24
2019-03-24T06:18:09.729Z,5.22
2019-03-24T06:19:09.739Z,5.27
2019-03-24T06:20:09.752Z,5.30
2019-03-24T06:21:09.768Z,5.27
2019-03-24T06:22:09.802Z,5.28
2019-03-24T06:23:09.789Z,5.28
2019-03-24T06:24:09.813Z,5.28
2019-03-24T06:25:09.808Z,5.30
2019-03-24T06:26:09.836Z,5.31
2019-03-24T06:27:09.856Z,5.24
2019-03-24T06:28:09.848Z,5.25
2019-03-24T06:29:09.877Z,5.33
2019-03-24T06:30:09.869Z,5.27
2019-03-24T06:31:09.891Z,5.28
2019-03-24T06:32:09.939Z,5.36
2019-03-24T06:33:09.914Z,5.40
2019-03-24T06:34:09.925Z,5.40
2019-03-24T06:35:09.914Z,5.46
2019-03-24T06:36:09.926Z,5.45
2019-03-24T06:37:09.945Z,5.53
2019-03-24T06:38:09.945Z,5.53
2019-03-24T06:39:09.960Z,5.58
2019-03-24T06:40:09.971Z,5.58
2019-03-24T06:41:09.980Z,5.61
2019-03-24T06:42:09.994Z,5.63
2019-03-24T06:43:10.003Z,5.68
2019-03-24T06:44:10.018Z,5.72
2019-03-24T06:45:10.023Z,5.71
2019-03-24T06:46:10.040Z,5.60
2019-03-24T06:47:10.053Z,5.53
2019-03-24T06:48:10.065Z,5.56
2019-03-24T06:49:10.068Z,5.61
2019-03-24T06:50:10.080Z,5.61
2019-03-24T06:51:10.109Z,5.67
2019-03-24T06:52:10.101Z,5.68
2019-03-24T06:53:10.111Z,5.72
2019-03-24T06:54:10.121Z,5.68
2019-03-24T06:55:10.154Z,5.79
2019-03-24T06:56:10.155Z,5.74
2019-03-24T06:57:10.157Z,5.81
2019-03-24T06:58:10.195Z,5.81
2019-03-24T06:59:10.184Z,5.83
2019-03-24T07:00:10.194Z,5.74
2019-03-24T07:01:10.204Z,5.74
2019-03-24T07:02:10.217Z,5.75
2019-03-24T07:03:10.225Z,5.89
2019-03-24T07:04:10.254Z,5.90
2019-03-24T07:05:10.249Z,5.89
2019-03-24T07:06:10.259Z,5.83
2019-03-24T07:07:10.272Z,5.85
2019-03-24T07:08:10.294Z,5.93
2019-03-24T07:09:10.294Z,5.94
2019-03-24T07:10:10.339Z,6.06
2019-03-24T07:11:13.657Z,6.12
2019-03-24T07:12:10.328Z,6.17
2019-03-24T07:13:10.342Z,6.12
2019-03-24T07:14:10.354Z,6.14
2019-03-24T07:15:10.365Z,6.09
2019-03-24T07:16:10.377Z,6.06
2019-03-24T07:17:10.389Z,6.14
2019-03-24T07:18:10.400Z,6.17
2019-03-24T07:19:10.410Z,6.18
2019-03-24T07:20:10.423Z,6.18
2019-03-24T07:21:10.439Z,6.25
2019-03-24T07:22:10.447Z,6.33
2019-03-24T07:23:10.453Z,6.34
2019-03-24T07:24:10.475Z,6.41
2019-03-24T07:25:10.483Z,6.43
2019-03-24T07:26:10.491Z,6.43
2019-03-24T07:27:10.502Z,6.34
2019-03-24T07:28:10.515Z,6.30
2019-03-24T07:29:10.607Z,6.48
2019-03-24T07:30:10.538Z,6.49
2019-03-24T07:31:10.546Z,6.48
2019-03-24T07:32:10.566Z,6.55
2019-03-24T07:33:10.573Z,6.56
2019-03-24T07:35:10.732Z,6.64
2019-03-24T07:36:10.624Z,6.66
2019-03-24T07:37:10.615Z,6.79
2019-03-24T07:38:10.632Z,6.85
2019-03-24T07:39:10.642Z,6.85
2019-03-24T07:40:10.657Z,6.91
2019-03-24T07:41:10.699Z,6.88
2019-03-24T07:42:10.676Z,7.02
2019-03-24T07:43:10.706Z,6.99
2019-03-24T07:44:10.901Z,7.03
2019-03-24T07:45:10.714Z,7.06
2019-03-24T07:46:11.088Z,7.13
2019-03-24T07:47:10.766Z,7.13
2019-03-24T07:48:18.667Z,7.13
2019-03-24T07:49:10.761Z,7.13
2019-03-24T07:50:10.769Z,7.06
2019-03-24T07:51:10.790Z,7.05
2019-03-24T07:52:10.800Z,7.06
2019-03-24T07:53:11.199Z,7.07
2019-03-24T07:54:10.826Z,7.13
2019-03-24T07:55:10.832Z,6.99
2019-03-24T07:56:10.843Z,6.99
2019-03-24T07:57:10.854Z,6.97
2019-03-24T07:58:10.872Z,6.98
2019-03-24T07:59:10.888Z,7.03
2019-03-24T08:00:10.891Z,6.88
2019-03-24T08:01:10.908Z,6.97
2019-03-24T08:02:10.918Z,6.95
2019-03-24T08:04:11.038Z,6.85
2019-03-24T08:05:11.267Z,6.74
2019-03-24T08:06:10.963Z,6.76
2019-03-24T08:07:10.975Z,6.71
2019-03-24T08:08:10.988Z,6.67
2019-03-24T08:09:11.001Z,6.71
2019-03-24T08:10:11.271Z,6.73
2019-03-24T08:11:11.025Z,6.74
2019-03-24T08:12:11.110Z,6.88
2019-03-24T08:13:11.049Z,6.89
2019-03-24T08:14:11.061Z,6.97
2019-03-24T08:15:11.281Z,7.03
2019-03-24T08:17:11.145Z,6.98
2019-03-24T08:18:11.113Z,7.05
2019-03-24T08:19:11.121Z,6.94
2019-03-24T08:20:12.296Z,6.88
2019-03-24T08:21:11.139Z,6.87
2019-03-24T08:22:11.178Z,6.95
2019-03-24T08:23:11.165Z,6.98
2019-03-24T08:24:11.185Z,6.99
2019-03-24T08:25:11.190Z,7.02
2019-03-24T08:26:11.243Z,7.02
2019-03-24T08:27:11.214Z,7.03
2019-03-24T08:28:11.241Z,7.05
2019-03-24T08:29:11.248Z,7.03
2019-03-24T08:30:11.316Z,7.02
2019-03-24T08:31:11.263Z,6.98
2019-03-24T08:32:11.274Z,7.07
2019-03-24T08:33:11.290Z,7.10
2019-03-24T08:34:11.303Z,7.21
2019-03-24T08:35:11.319Z,7.25
2019-03-24T08:36:11.321Z,7.28
2019-03-24T08:37:11.347Z,7.31
2019-03-24T08:38:11.343Z,7.39
2019-03-24T08:39:11.744Z,7.42
2019-03-24T08:40:11.387Z,7.48
2019-03-24T08:41:11.486Z,7.48
2019-03-24T08:43:11.441Z,7.55
2019-03-24T08:44:11.418Z,7.61
2019-03-24T08:45:11.434Z,7.64
2019-03-24T08:46:11.438Z,7.60
2019-03-24T08:47:11.505Z,7.58
2019-03-24T08:48:11.665Z,7.75
2019-03-24T08:50:11.498Z,7.77
2019-03-24T08:51:11.499Z,7.75
2019-03-24T08:52:11.513Z,7.80
2019-03-24T08:53:11.524Z,7.85
2019-03-24T08:54:11.536Z,7.90
2019-03-24T08:55:11.550Z,7.86
2019-03-24T08:56:11.568Z,7.89
2019-03-24T08:57:11.577Z,7.89
2019-03-24T08:58:11.593Z,7.89
2019-03-24T08:59:11.605Z,7.98
2019-03-24T09:00:11.614Z,7.98
2019-03-24T09:01:11.641Z,7.87
2019-03-24T09:02:11.635Z,7.85
2019-03-24T09:03:11.647Z,7.90
2019-03-24T09:04:11.664Z,8.00
2019-03-24T09:05:11.675Z,8.05
2019-03-24T09:06:11.686Z,8.10
2019-03-24T09:07:11.696Z,8.10
2019-03-24T09:08:11.734Z,8.07
2019-03-24T09:09:11.718Z,8.16
2019-03-24T09:10:11.742Z,8.23
2019-03-24T09:12:12.018Z,8.16
2019-03-24T09:13:11.815Z,8.15
2019-03-24T09:14:11.782Z,8.20
2019-03-24T09:15:11.795Z,8.30
2019-03-24T09:16:11.819Z,8.37
2019-03-24T09:17:11.969Z,8.38
2019-03-24T09:19:11.843Z,8.59
2019-03-24T09:20:11.864Z,8.62
2019-03-24T09:21:11.873Z,8.80
2019-03-24T09:22:11.885Z,8.83
2019-03-24T09:23:11.903Z,8.83
2019-03-24T09:24:11.906Z,8.86
2019-03-24T09:25:11.916Z,8.86
2019-03-24T09:26:11.967Z,8.84
2019-03-24T09:27:11.947Z,8.74
2019-03-24T09:28:11.957Z,8.79
2019-03-24T09:29:11.967Z,8.79
2019-03-24T09:30:11.981Z,8.65
2019-03-24T09:31:12.008Z,8.66
2019-03-24T09:32:12.007Z,8.80
2019-03-24T09:33:12.024Z,8.84
2019-03-24T09:34:12.028Z,8.81
2019-03-24T09:35:12.043Z,8.79
2019-03-24T09:36:12.057Z,8.83
2019-03-24T09:37:12.069Z,8.83
2019-03-24T09:38:12.134Z,8.91
2019-03-24T09:39:12.098Z,8.92
2019-03-24T09:40:12.314Z,8.95
2019-03-24T09:42:12.680Z,9.08
2019-03-24T09:43:12.219Z,9.04
2019-03-24T09:44:12.411Z,9.10
2019-03-24T09:45:12.176Z,9.17
2019-03-24T09:46:12.182Z,9.20
2019-03-24T09:47:12.198Z,9.10
2019-03-24T09:48:12.209Z,9.08
2019-03-24T09:49:12.231Z,9.08
2019-03-24T09:50:12.560Z,9.10
2019-03-24T09:51:12.433Z,9.33
2019-03-24T09:52:12.269Z,9.36
2019-03-24T09:53:12.272Z,9.36
2019-03-24T09:54:12.283Z,9.50
2019-03-24T09:55:12.299Z,9.51
2019-03-24T09:56:12.328Z,9.69
2019-03-24T09:57:12.319Z,9.72
2019-03-24T09:58:12.334Z,9.81
2019-03-24T09:59:12.666Z,9.91
2019-03-24T10:00:12.370Z,9.90
2019-03-24T10:01:12.382Z,9.94
2019-03-24T10:02:12.398Z,9.91
2019-03-24T10:03:12.404Z,9.94
2019-03-24T10:04:12.407Z,10.02
2019-03-24T10:05:12.431Z,10.18
2019-03-24T10:06:12.461Z,10.04
2019-03-24T10:07:12.476Z,9.99
2019-03-24T10:08:12.461Z,10.08
2019-03-24T10:09:12.474Z,10.08
2019-03-24T10:10:12.487Z,10.11
2019-03-24T10:11:12.564Z,10.20
2019-03-24T10:13:12.627Z,10.40
2019-03-24T10:14:12.620Z,10.33
2019-03-24T10:15:13.011Z,10.36
2019-03-24T10:16:12.573Z,10.48
2019-03-24T10:18:13.184Z,10.59
2019-03-24T10:20:12.635Z,10.61
2019-03-24T10:21:12.641Z,10.66
2019-03-24T10:22:12.665Z,10.61
2019-03-24T10:24:13.064Z,10.64
2019-03-24T10:25:12.698Z,10.64
2019-03-24T10:26:12.697Z,10.70
2019-03-24T10:27:12.710Z,10.94
2019-03-24T10:28:12.764Z,11.02
2019-03-24T10:29:12.733Z,11.11
2019-03-24T10:30:12.749Z,11.10
2019-03-24T10:31:12.759Z,11.15
2019-03-24T10:32:12.776Z,11.02
2019-03-24T10:33:12.792Z,11.07
2019-03-24T10:34:12.805Z,11.25
2019-03-24T10:35:12.813Z,11.29
2019-03-24T10:36:12.837Z,11.35
2019-03-24T10:37:12.843Z,11.07
2019-03-24T10:38:12.866Z,11.07
2019-03-24T10:39:12.872Z,11.15
2019-03-24T10:40:12.888Z,11.18
2019-03-24T10:41:12.917Z,11.22
2019-03-24T10:42:12.917Z,11.17
2019-03-24T10:43:12.929Z,11.24
2019-03-24T10:44:12.942Z,11.42
2019-03-24T10:45:12.951Z,11.58
2019-03-24T10:46:13.024Z,11.85
2019-03-24T10:47:13.055Z,11.94
2019-03-24T10:48:13.001Z,12.09
2019-03-24T10:49:13.205Z,12.05
2019-03-24T10:50:14.431Z,12.05
2019-03-24T10:51:13.040Z,12.10
2019-03-24T10:52:13.059Z,11.95
2019-03-24T10:53:13.183Z,11.86
2019-03-24T10:54:13.175Z,11.75
2019-03-24T10:56:13.156Z,11.76
2019-03-24T10:57:13.774Z,11.85
2019-03-24T10:58:13.214Z,11.98
2019-03-24T10:59:13.144Z,11.99
2019-03-24T11:00:13.162Z,12.13
2019-03-24T11:01:13.178Z,12.14
2019-03-24T11:02:13.195Z,12.28
2019-03-24T11:03:13.209Z,12.29
2019-03-24T11:04:13.223Z,12.31
2019-03-24T11:05:13.231Z,12.17
2019-03-24T11:06:13.246Z,12.21
2019-03-24T11:07:13.259Z,12.29
2019-03-24T11:08:13.289Z,12.29
2019-03-24T11:09:13.295Z,12.31
2019-03-24T11:10:13.309Z,12.31
2019-03-24T11:11:13.324Z,12.17
2019-03-24T11:12:13.329Z,12.35
2019-03-24T11:13:13.344Z,12.35
2019-03-24T11:14:13.370Z,12.32
2019-03-24T11:15:13.373Z,12.16
2019-03-24T11:16:13.390Z,12.05
2019-03-24T11:17:13.419Z,12.04
2019-03-24T11:18:13.782Z,11.99
2019-03-24T11:20:13.878Z,11.90
2019-03-24T11:23:13.646Z,11.60
2019-03-24T11:24:13.503Z,11.58
2019-03-24T11:25:13.525Z,11.55
2019-03-24T11:26:13.534Z,11.61
2019-03-24T11:27:13.595Z,11.79
2019-03-24T11:28:13.728Z,11.70
2019-03-24T11:29:13.602Z,11.64
2019-03-24T11:30:13.990Z,11.91
2019-03-24T11:31:13.602Z,12.09
2019-03-24T11:32:13.610Z,12.19
2019-03-24T11:33:13.634Z,12.09
2019-03-24T11:34:13.640Z,12.20
2019-03-24T11:35:13.656Z,12.16
2019-03-24T11:36:13.669Z,12.10
2019-03-24T11:37:13.686Z,12.05
2019-03-24T11:38:13.697Z,12.04
2019-03-24T11:39:13.715Z,12.12
2019-03-24T11:40:13.733Z,12.13
2019-03-24T11:41:13.745Z,12.24
2019-03-24T11:42:13.752Z,12.13
2019-03-24T11:43:13.769Z,12.28
2019-03-24T11:44:13.785Z,12.19
2019-03-24T11:45:14.206Z,12.13
2019-03-24T11:46:13.910Z,12.27
2019-03-24T11:47:13.827Z,12.35
2019-03-24T11:48:13.846Z,12.32
2019-03-24T11:49:13.871Z,12.38
2019-03-24T11:50:13.865Z,12.49
2019-03-24T11:51:13.882Z,12.50
2019-03-24T11:52:13.895Z,12.50
2019-03-24T11:54:14.114Z,12.75
2019-03-24T11:55:13.936Z,12.85
2019-03-24T11:56:13.958Z,12.86
2019-03-24T11:57:13.966Z,12.87
2019-03-24T11:58:13.980Z,13.03
2019-03-24T11:59:14.000Z,12.92
2019-03-24T12:00:14.008Z,12.93
2019-03-24T12:01:14.178Z,13.07
2019-03-24T12:03:14.057Z,13.12
2019-03-24T12:04:14.066Z,13.26
2019-03-24T12:05:14.080Z,13.36
2019-03-24T12:06:15.065Z,13.26
2019-03-24T12:07:14.122Z,13.32
2019-03-24T12:08:14.121Z,13.17
2019-03-24T12:09:14.134Z,13.17
2019-03-24T12:10:14.168Z,13.07
2019-03-24T12:11:14.163Z,12.86
2019-03-24T12:12:14.181Z,12.77
2019-03-24T12:13:14.190Z,12.60
2019-03-24T12:14:14.210Z,12.53
2019-03-24T12:15:14.226Z,12.50
2019-03-24T12:16:14.239Z,12.65
2019-03-24T12:17:14.251Z,12.47
2019-03-24T12:18:14.262Z,12.50
2019-03-24T12:19:14.279Z,12.41
2019-03-24T12:21:14.758Z,12.65
2019-03-24T12:22:14.325Z,12.72
2019-03-24T12:23:14.394Z,12.70
2019-03-24T12:24:14.346Z,12.78
2019-03-24T12:25:14.370Z,12.53
2019-03-24T12:26:14.636Z,12.52
2019-03-24T12:27:14.696Z,12.41
2019-03-24T12:28:14.401Z,12.52
2019-03-24T12:29:14.417Z,12.70
2019-03-24T12:30:14.433Z,12.64
2019-03-24T12:31:14.583Z,12.49
2019-03-24T12:32:15.606Z,12.35
2019-03-24T12:33:14.889Z,12.38
2019-03-24T12:34:14.520Z,12.35
2019-03-24T12:35:14.501Z,12.34
2019-03-24T12:37:14.569Z,12.34
2019-03-24T12:38:14.545Z,12.27
2019-03-24T12:39:14.561Z,12.34
2019-03-24T12:40:14.575Z,12.42
2019-03-24T12:41:14.585Z,12.27
2019-03-24T12:42:14.601Z,12.21
2019-03-24T12:43:19.342Z,12.21
2019-03-24T12:44:14.629Z,12.23
2019-03-24T12:45:14.646Z,12.13
2019-03-24T12:46:14.657Z,12.19
2019-03-24T12:47:14.676Z,12.14
2019-03-24T12:48:14.750Z,12.12
2019-03-24T12:49:14.765Z,11.95
2019-03-24T12:50:14.724Z,12.02
2019-03-24T12:51:14.740Z,11.98
2019-03-24T12:52:14.750Z,11.99
2019-03-24T12:53:14.757Z,11.90
2019-03-24T12:54:14.778Z,11.80
2019-03-24T12:55:14.787Z,11.94
2019-03-24T12:56:14.811Z,12.13
2019-03-24T12:57:14.810Z,12.19
2019-03-24T12:58:14.884Z,12.27
2019-03-24T12:59:15.450Z,12.47
2019-03-24T13:00:14.868Z,12.29
2019-03-24T13:01:14.867Z,12.23
2019-03-24T13:02:14.890Z,12.21
2019-03-24T13:03:14.893Z,12.27
2019-03-24T13:04:15.038Z,12.34
2019-03-24T13:06:14.954Z,12.83
2019-03-24T13:07:14.985Z,12.90
2019-03-24T13:08:14.972Z,13.10
2019-03-24T13:09:14.973Z,13.04
2019-03-24T13:10:14.999Z,13.03
2019-03-24T13:11:15.001Z,12.85
2019-03-24T13:12:15.039Z,12.60
2019-03-24T13:13:15.028Z,12.50
2019-03-24T13:14:15.048Z,12.49
2019-03-24T13:15:15.059Z,12.56
2019-03-24T13:16:15.150Z,12.70
2019-03-24T13:17:15.108Z,12.78
2019-03-24T13:18:15.111Z,12.93
2019-03-24T13:19:15.122Z,13.30
2019-03-24T13:20:22.742Z,13.33
2019-03-24T13:21:15.153Z,13.29
2019-03-24T13:22:15.165Z,13.26
2019-03-24T13:23:15.175Z,13.23
2019-03-24T13:24:15.188Z,12.95
2019-03-24T13:25:15.202Z,13.07
2019-03-24T13:26:15.816Z,12.68
2019-03-24T13:27:15.260Z,12.57
2019-03-24T13:28:15.235Z,12.65
2019-03-24T13:29:15.256Z,12.87
2019-03-24T13:30:15.286Z,13.07
2019-03-24T13:32:15.676Z,13.20
2019-03-24T13:33:15.310Z,13.33
2019-03-24T13:34:15.325Z,13.52